sensor_id;sensor_type;location;lat;lon;timestamp;temperature;humidity
19947;DHT22;10135;50.702;7.276;2023-04-07T05:01:05;11.50;62.10
19947;DHT22;10135;50.702;7.276;2023-04-07T05:03:06;11.50;61.30
19947;DHT22;10135;50.702;7.276;2023-04-07T05:05:07;11.50;61.60
19947;DHT22;10135;50.702;7.276;2023-04-07T05:07:07;11.50;61.70
19947;DHT22;10135;50.702;7.276;2023-04-07T05:09:08;11.50;61.80
19947;DHT22;10135;50.702;7.276;2023-04-07T05:11:10;11.50;61.80
19947;DHT22;10135;50.702;7.276;2023-04-07T05:13:11;11.50;62.00
19947;DHT22;10135;50.702;7.276;2023-04-07T05:15:12;11.60;61.90
19947;DHT22;10135;50.702;7.276;2023-04-07T05:17:14;11.50;61.90
19947;DHT22;10135;50.702;7.276;2023-04-07T05:19:15;11.50;61.90
19947;DHT22;10135;50.702;7.276;2023-04-07T05:21:15;11.50;62.00
19947;DHT22;10135;50.702;7.276;2023-04-07T05:23:16;11.60;62.00
19947;DHT22;10135;50.702;7.276;2023-04-07T05:25:17;11.50;62.00
19947;DHT22;10135;50.702;7.276;2023-04-07T05:27:17;11.50;62.10
19947;DHT22;10135;50.702;7.276;2023-04-07T05:29:18;11.50;62.00
19947;DHT22;10135;50.702;7.276;2023-04-07T05:31:19;11.50;62.20
19947;DHT22;10135;50.702;7.276;2023-04-07T05:33:20;11.50;62.90
19947;DHT22;10135;50.702;7.276;2023-04-07T05:35:20;11.50;62.10
19947;DHT22;10135;50.702;7.276;2023-04-07T05:37:21;11.50;62.20
19947;DHT22;10135;50.702;7.276;2023-04-07T05:39:22;11.50;62.30
19947;DHT22;10135;50.702;7.276;2023-04-07T05:41:23;11.50;62.20
19947;DHT22;10135;50.702;7.276;2023-04-07T05:43:23;11.50;62.30
19947;DHT22;10135;50.702;7.276;2023-04-07T05:45:24;11.50;62.40
19947;DHT22;10135;50.702;7.276;2023-04-07T05:47:25;11.50;62.40
19947;DHT22;10135;50.702;7.276;2023-04-07T05:49:25;11.50;62.50
19947;DHT22;10135;50.702;7.276;2023-04-07T05:51:27;11.50;62.50
19947;DHT22;10135;50.702;7.276;2023-04-07T05:53:27;11.50;62.50
19947;DHT22;10135;50.702;7.276;2023-04-07T05:55:28;11.50;62.50
19947;DHT22;10135;50.702;7.276;2023-04-07T05:57:29;11.50;62.50
19947;DHT22;10135;50.702;7.276;2023-04-07T05:59:29;11.40;62.60
19947;DHT22;10135;50.702;7.276;2023-04-07T06:01:30;11.40;62.60
19947;DHT22;10135;50.702;7.276;2023-04-07T06:03:31;11.40;62.60
19947;DHT22;10135;50.702;7.276;2023-04-07T06:05:31;11.40;62.70
19947;DHT22;10135;50.702;7.276;2023-04-07T06:07:33;11.40;62.60
19947;DHT22;10135;50.702;7.276;2023-04-07T06:09:35;11.40;62.60
19947;DHT22;10135;50.702;7.276;2023-04-07T06:11:35;11.40;62.70
19947;DHT22;10135;50.702;7.276;2023-04-07T06:13:36;11.40;62.70
19947;DHT22;10135;50.702;7.276;2023-04-07T06:15:37;11.40;62.80
19947;DHT22;10135;50.702;7.276;2023-04-07T06:17:37;11.40;62.90
19947;DHT22;10135;50.702;7.276;2023-04-07T06:19:38;11.40;62.90
19947;DHT22;10135;50.702;7.276;2023-04-07T06:21:39;11.40;63.00
19947;DHT22;10135;50.702;7.276;2023-04-07T06:23:39;11.50;63.00
19947;DHT22;10135;50.702;7.276;2023-04-07T06:25:40;11.40;63.00
19947;DHT22;10135;50.702;7.276;2023-04-07T06:27:41;11.50;63.10
19947;DHT22;10135;50.702;7.276;2023-04-07T06:29:41;11.40;63.10
19947;DHT22;10135;50.702;7.276;2023-04-07T06:31:42;11.40;63.10
19947;DHT22;10135;50.702;7.276;2023-04-07T06:33:43;11.40;63.10
19947;DHT22;10135;50.702;7.276;2023-04-07T06:35:44;11.40;63.10
19947;DHT22;10135;50.702;7.276;2023-04-07T06:37:45;11.40;63.10
19947;DHT22;10135;50.702;7.276;2023-04-07T06:39:46;11.50;63.30
19947;DHT22;10135;50.702;7.276;2023-04-07T06:41:47;11.50;63.30
19947;DHT22;10135;50.702;7.276;2023-04-07T06:43:48;11.40;63.20
19947;DHT22;10135;50.702;7.276;2023-04-07T06:45:52;11.50;63.30
19947;DHT22;10135;50.702;7.276;2023-04-07T06:47:53;11.50;63.30
19947;DHT22;10135;50.702;7.276;2023-04-07T06:49:54;11.50;63.40
19947;DHT22;10135;50.702;7.276;2023-04-07T06:51:54;11.50;63.30
19947;DHT22;10135;50.702;7.276;2023-04-07T06:53:55;11.50;63.40
19947;DHT22;10135;50.702;7.276;2023-04-07T06:56:07;11.40;63.40
19947;DHT22;10135;50.702;7.276;2023-04-07T06:58:09;11.50;64.20
19947;DHT22;10135;50.702;7.276;2023-04-07T07:00:10;11.50;63.50
19947;DHT22;10135;50.702;7.276;2023-04-07T07:02:11;11.40;63.40
19947;DHT22;10135;50.702;7.276;2023-04-07T07:04:11;11.50;63.60
19947;DHT22;10135;50.702;7.276;2023-04-07T07:06:12;11.50;63.50
19947;DHT22;10135;50.702;7.276;2023-04-07T07:08:13;11.50;63.50
19947;DHT22;10135;50.702;7.276;2023-04-07T07:10:13;11.40;63.50
19947;DHT22;10135;50.702;7.276;2023-04-07T07:12:14;11.40;63.50
19947;DHT22;10135;50.702;7.276;2023-04-07T07:14:17;11.40;63.60
19947;DHT22;10135;50.702;7.276;2023-04-07T07:16:17;11.40;63.60
19947;DHT22;10135;50.702;7.276;2023-04-07T07:18:18;11.40;63.60
19947;DHT22;10135;50.702;7.276;2023-04-07T07:20:19;11.40;63.60
19947;DHT22;10135;50.702;7.276;2023-04-07T07:22:22;11.40;63.70
19947;DHT22;10135;50.702;7.276;2023-04-07T07:24:23;11.40;63.70
19947;DHT22;10135;50.702;7.276;2023-04-07T07:26:24;11.40;63.70
19947;DHT22;10135;50.702;7.276;2023-04-07T07:28:25;11.40;63.80
19947;DHT22;10135;50.702;7.276;2023-04-07T07:30:28;11.40;63.90
19947;DHT22;10135;50.702;7.276;2023-04-07T07:32:29;11.40;63.90
19947;DHT22;10135;50.702;7.276;2023-04-07T07:34:29;11.40;63.80
19947;DHT22;10135;50.702;7.276;2023-04-07T07:36:32;11.40;63.90
19947;DHT22;10135;50.702;7.276;2023-04-07T07:38:33;11.40;63.90
19947;DHT22;10135;50.702;7.276;2023-04-07T07:40:33;11.50;64.00
19947;DHT22;10135;50.702;7.276;2023-04-07T07:42:34;11.50;64.10
19947;DHT22;10135;50.702;7.276;2023-04-07T07:44:35;11.50;64.10
19947;DHT22;10135;50.702;7.276;2023-04-07T07:46:35;11.50;64.10
19947;DHT22;10135;50.702;7.276;2023-04-07T07:48:36;11.50;64.10
19947;DHT22;10135;50.702;7.276;2023-04-07T07:50:36;11.50;64.10
19947;DHT22;10135;50.702;7.276;2023-04-07T07:52:37;11.50;64.10
19947;DHT22;10135;50.702;7.276;2023-04-07T07:54:38;11.60;64.20
19947;DHT22;10135;50.702;7.276;2023-04-07T07:56:39;11.50;64.10
19947;DHT22;10135;50.702;7.276;2023-04-07T07:58:39;11.60;64.10
19947;DHT22;10135;50.702;7.276;2023-04-07T08:00:40;11.60;64.20
19947;DHT22;10135;50.702;7.276;2023-04-07T08:02:41;11.60;64.20
19947;DHT22;10135;50.702;7.276;2023-04-07T08:04:42;11.60;64.10
19947;DHT22;10135;50.702;7.276;2023-04-07T08:06:42;11.60;64.30
19947;DHT22;10135;50.702;7.276;2023-04-07T08:08:43;11.60;64.20
19947;DHT22;10135;50.702;7.276;2023-04-07T08:10:44;11.60;64.30
19947;DHT22;10135;50.702;7.276;2023-04-07T08:12:45;11.60;64.30
19947;DHT22;10135;50.702;7.276;2023-04-07T08:14:45;11.60;64.40
19947;DHT22;10135;50.702;7.276;2023-04-07T08:16:46;11.60;64.30
19947;DHT22;10135;50.702;7.276;2023-04-07T08:18:47;11.60;64.40
19947;DHT22;10135;50.702;7.276;2023-04-07T08:20:47;11.60;64.30
19947;DHT22;10135;50.702;7.276;2023-04-07T08:22:48;11.60;64.40
19947;DHT22;10135;50.702;7.276;2023-04-07T08:24:49;11.60;64.40
19947;DHT22;10135;50.702;7.276;2023-04-07T08:26:49;11.60;64.40
19947;DHT22;10135;50.702;7.276;2023-04-07T08:28:50;11.60;64.40
19947;DHT22;10135;50.702;7.276;2023-04-07T08:30:52;11.60;64.50
19947;DHT22;10135;50.702;7.276;2023-04-07T08:32:52;11.60;64.50
19947;DHT22;10135;50.702;7.276;2023-04-07T08:34:54;11.60;64.40
19947;DHT22;10135;50.702;7.276;2023-04-07T08:36:55;11.60;64.60
19947;DHT22;10135;50.702;7.276;2023-04-07T08:38:56;11.60;64.50
19947;DHT22;10135;50.702;7.276;2023-04-07T08:41:03;11.60;64.60
19947;DHT22;10135;50.702;7.276;2023-04-07T08:43:09;11.60;65.00
19947;DHT22;10135;50.702;7.276;2023-04-07T08:45:12;11.70;64.90
19947;DHT22;10135;50.702;7.276;2023-04-07T08:47:14;11.70;64.80
19947;DHT22;10135;50.702;7.276;2023-04-07T08:49:17;11.70;64.90
19947;DHT22;10135;50.702;7.276;2023-04-07T08:51:31;11.70;64.70
19947;DHT22;10135;50.702;7.276;2023-04-07T08:53:39;11.70;65.30
19947;DHT22;10135;50.702;7.276;2023-04-07T08:55:43;11.80;65.20
19947;DHT22;10135;50.702;7.276;2023-04-07T08:57:45;11.80;64.90
19947;DHT22;10135;50.702;7.276;2023-04-07T08:59:47;11.80;65.00
19947;DHT22;10135;50.702;7.276;2023-04-07T09:01:50;11.90;64.90
19947;DHT22;10135;50.702;7.276;2023-04-07T09:03:52;11.90;64.80
19947;DHT22;10135;50.702;7.276;2023-04-07T09:05:53;11.90;64.90
19947;DHT22;10135;50.702;7.276;2023-04-07T09:07:55;11.90;64.90
19947;DHT22;10135;50.702;7.276;2023-04-07T09:09:56;12.00;64.90
19947;DHT22;10135;50.702;7.276;2023-04-07T09:11:57;12.00;64.90
19947;DHT22;10135;50.702;7.276;2023-04-07T09:13:58;12.00;64.80
19947;DHT22;10135;50.702;7.276;2023-04-07T09:16:02;12.00;64.90
19947;DHT22;10135;50.702;7.276;2023-04-07T09:18:03;12.10;65.00
19947;DHT22;10135;50.702;7.276;2023-04-07T09:20:04;12.10;65.00
19947;DHT22;10135;50.702;7.276;2023-04-07T09:22:05;12.10;65.00
19947;DHT22;10135;50.702;7.276;2023-04-07T09:24:20;12.10;65.00
19947;DHT22;10135;50.702;7.276;2023-04-07T09:26:27;12.20;65.60
19947;DHT22;10135;50.702;7.276;2023-04-07T09:28:40;12.20;65.00
19947;DHT22;10135;50.702;7.276;2023-04-07T09:30:51;12.20;65.60
19947;DHT22;10135;50.702;7.276;2023-04-07T09:32:54;12.20;65.50
19947;DHT22;10135;50.702;7.276;2023-04-07T09:34:58;12.30;65.00
19947;DHT22;10135;50.702;7.276;2023-04-07T09:37:00;12.30;65.10
19947;DHT22;10135;50.702;7.276;2023-04-07T09:39:07;12.30;64.90
19947;DHT22;10135;50.702;7.276;2023-04-07T09:41:15;12.30;65.30
19947;DHT22;10135;50.702;7.276;2023-04-07T09:43:17;12.30;65.00
19947;DHT22;10135;50.702;7.276;2023-04-07T09:45:29;12.30;64.90
19947;DHT22;10135;50.702;7.276;2023-04-07T09:47:38;12.40;65.50
19947;DHT22;10135;50.702;7.276;2023-04-07T09:49:52;12.40;64.90
19947;DHT22;10135;50.702;7.276;2023-04-07T09:51:58;12.40;65.60
19947;DHT22;10135;50.702;7.276;2023-04-07T09:54:09;12.40;65.20
19947;DHT22;10135;50.702;7.276;2023-04-07T09:56:10;12.40;65.00
19947;DHT22;10135;50.702;7.276;2023-04-07T09:58:12;12.40;65.00
19947;DHT22;10135;50.702;7.276;2023-04-07T10:00:16;12.40;65.10
19947;DHT22;10135;50.702;7.276;2023-04-07T10:02:17;12.50;65.20
19947;DHT22;10135;50.702;7.276;2023-04-07T10:04:18;12.50;65.10
19947;DHT22;10135;50.702;7.276;2023-04-07T10:06:19;12.50;65.10
19947;DHT22;10135;50.702;7.276;2023-04-07T10:08:21;12.60;65.10
19947;DHT22;10135;50.702;7.276;2023-04-07T10:10:22;12.60;65.10
19947;DHT22;10135;50.702;7.276;2023-04-07T10:12:23;12.60;65.00
19947;DHT22;10135;50.702;7.276;2023-04-07T10:14:30;12.60;64.90
19947;DHT22;10135;50.702;7.276;2023-04-07T10:16:32;12.60;65.20
19947;DHT22;10135;50.702;7.276;2023-04-07T10:18:34;12.60;65.00
19947;DHT22;10135;50.702;7.276;2023-04-07T10:20:39;12.60;64.90
19947;DHT22;10135;50.702;7.276;2023-04-07T10:22:43;12.60;65.00
19947;DHT22;10135;50.702;7.276;2023-04-07T10:27:13;12.50;65.30
19947;DHT22;10135;50.702;7.276;2023-04-07T10:29:18;12.50;65.00
19947;DHT22;10135;50.702;7.276;2023-04-07T10:31:21;12.50;65.00
19947;DHT22;10135;50.702;7.276;2023-04-07T10:36:02;12.60;65.90
19947;DHT22;10135;50.702;7.276;2023-04-07T10:49:10;12.70;65.50
19947;DHT22;10135;50.702;7.276;2023-04-07T10:51:13;12.80;66.20
19947;DHT22;10135;50.702;7.276;2023-04-07T10:53:15;12.80;65.30
19947;DHT22;10135;50.702;7.276;2023-04-07T10:55:40;12.90;65.40
19947;DHT22;10135;50.702;7.276;2023-04-07T11:00:16;13.00;66.00
19947;DHT22;10135;50.702;7.276;2023-04-07T11:04:36;13.00;65.50
19947;DHT22;10135;50.702;7.276;2023-04-07T11:06:46;13.00;65.60
19947;DHT22;10135;50.702;7.276;2023-04-07T11:08:47;13.10;65.70
19947;DHT22;10135;50.702;7.276;2023-04-07T11:10:49;13.10;65.30
19947;DHT22;10135;50.702;7.276;2023-04-07T11:13:01;13.10;65.30
19947;DHT22;10135;50.702;7.276;2023-04-07T11:15:21;13.20;65.80
19947;DHT22;10135;50.702;7.276;2023-04-07T11:17:22;13.20;66.00
19947;DHT22;10135;50.702;7.276;2023-04-07T11:19:23;13.20;65.30
19947;DHT22;10135;50.702;7.276;2023-04-07T11:21:24;13.30;65.40
19947;DHT22;10135;50.702;7.276;2023-04-07T11:23:25;13.30;65.40
19947;DHT22;10135;50.702;7.276;2023-04-07T11:25:29;13.40;65.40
19947;DHT22;10135;50.702;7.276;2023-04-07T11:27:32;13.40;65.40
19947;DHT22;10135;50.702;7.276;2023-04-07T11:29:33;13.40;65.20
19947;DHT22;10135;50.702;7.276;2023-04-07T11:31:34;13.50;65.20
19947;DHT22;10135;50.702;7.276;2023-04-07T11:33:35;13.50;65.30
19947;DHT22;10135;50.702;7.276;2023-04-07T11:35:38;13.50;65.20
19947;DHT22;10135;50.702;7.276;2023-04-07T11:37:46;13.50;65.10
19947;DHT22;10135;50.702;7.276;2023-04-07T11:39:54;13.50;65.00
19947;DHT22;10135;50.702;7.276;2023-04-07T11:41:56;13.50;65.30
19947;DHT22;10135;50.702;7.276;2023-04-07T11:44:10;13.40;64.90
19947;DHT22;10135;50.702;7.276;2023-04-07T11:46:14;13.40;65.40
19947;DHT22;10135;50.702;7.276;2023-04-07T11:48:25;13.40;65.20
19947;DHT22;10135;50.702;7.276;2023-04-07T11:50:41;13.40;65.50
19947;DHT22;10135;50.702;7.276;2023-04-07T11:52:43;13.40;65.60
19947;DHT22;10135;50.702;7.276;2023-04-07T11:54:47;13.40;65.20
19947;DHT22;10135;50.702;7.276;2023-04-07T11:56:51;13.40;65.30
19947;DHT22;10135;50.702;7.276;2023-04-07T11:58:54;13.40;65.40
19947;DHT22;10135;50.702;7.276;2023-04-07T12:01:01;13.40;65.30
19947;DHT22;10135;50.702;7.276;2023-04-07T12:03:09;13.30;65.40
19947;DHT22;10135;50.702;7.276;2023-04-07T12:05:13;13.40;65.20
19947;DHT22;10135;50.702;7.276;2023-04-07T12:07:14;13.40;65.30
19947;DHT22;10135;50.702;7.276;2023-04-07T12:11:30;13.30;65.40
19947;DHT22;10135;50.702;7.276;2023-04-07T12:13:32;13.30;65.20
19947;DHT22;10135;50.702;7.276;2023-04-07T12:15:34;13.30;65.20
19947;DHT22;10135;50.702;7.276;2023-04-07T12:17:36;13.30;65.20
19947;DHT22;10135;50.702;7.276;2023-04-07T12:19:36;13.30;65.20
19947;DHT22;10135;50.702;7.276;2023-04-07T12:21:38;13.30;65.40
19947;DHT22;10135;50.702;7.276;2023-04-07T12:23:39;13.30;65.40
19947;DHT22;10135;50.702;7.276;2023-04-07T12:25:40;13.30;65.50
19947;DHT22;10135;50.702;7.276;2023-04-07T12:27:41;13.30;65.40
19947;DHT22;10135;50.702;7.276;2023-04-07T12:29:42;13.40;65.40
19947;DHT22;10135;50.702;7.276;2023-04-07T12:31:43;13.40;65.60
19947;DHT22;10135;50.702;7.276;2023-04-07T12:33:44;13.40;65.50
19947;DHT22;10135;50.702;7.276;2023-04-07T12:35:46;13.40;65.60
19947;DHT22;10135;50.702;7.276;2023-04-07T12:37:46;13.40;65.60
19947;DHT22;10135;50.702;7.276;2023-04-07T12:39:47;13.40;65.60
19947;DHT22;10135;50.702;7.276;2023-04-07T12:41:48;13.40;66.50
19947;DHT22;10135;50.702;7.276;2023-04-07T12:43:52;13.50;65.80
19947;DHT22;10135;50.702;7.276;2023-04-07T12:45:53;13.50;65.70
19947;DHT22;10135;50.702;7.276;2023-04-07T12:47:53;13.60;65.80
19947;DHT22;10135;50.702;7.276;2023-04-07T12:49:54;13.60;65.80
19947;DHT22;10135;50.702;7.276;2023-04-07T12:51:55;13.60;65.80
19947;DHT22;10135;50.702;7.276;2023-04-07T12:53:56;13.60;65.60
19947;DHT22;10135;50.702;7.276;2023-04-07T12:55:58;13.70;65.70
19947;DHT22;10135;50.702;7.276;2023-04-07T12:57:59;13.60;65.40
19947;DHT22;10135;50.702;7.276;2023-04-07T12:59:59;13.70;65.50
19947;DHT22;10135;50.702;7.276;2023-04-07T13:02:00;13.60;65.30
19947;DHT22;10135;50.702;7.276;2023-04-07T13:04:01;13.60;65.30
19947;DHT22;10135;50.702;7.276;2023-04-07T13:06:02;13.60;65.40
19947;DHT22;10135;50.702;7.276;2023-04-07T13:08:04;13.60;65.40
19947;DHT22;10135;50.702;7.276;2023-04-07T13:10:05;13.60;65.40
19947;DHT22;10135;50.702;7.276;2023-04-07T13:12:08;13.60;65.50
19947;DHT22;10135;50.702;7.276;2023-04-07T13:14:10;13.50;65.50
19947;DHT22;10135;50.702;7.276;2023-04-07T13:16:11;13.60;65.60
19947;DHT22;10135;50.702;7.276;2023-04-07T13:18:11;13.50;65.50
19947;DHT22;10135;50.702;7.276;2023-04-07T13:20:12;13.50;65.50
19947;DHT22;10135;50.702;7.276;2023-04-07T13:22:13;13.50;65.60
19947;DHT22;10135;50.702;7.276;2023-04-07T13:24:13;13.50;65.60
19947;DHT22;10135;50.702;7.276;2023-04-07T13:26:14;13.50;65.60
19947;DHT22;10135;50.702;7.276;2023-04-07T13:28:15;13.50;65.60
19947;DHT22;10135;50.702;7.276;2023-04-07T13:30:17;13.50;65.60
19947;DHT22;10135;50.702;7.276;2023-04-07T13:32:18;13.50;65.50
19947;DHT22;10135;50.702;7.276;2023-04-07T13:34:18;13.50;65.50
19947;DHT22;10135;50.702;7.276;2023-04-07T13:36:19;13.50;65.60
19947;DHT22;10135;50.702;7.276;2023-04-07T13:38:20;13.50;65.50
19947;DHT22;10135;50.702;7.276;2023-04-07T13:40:21;13.50;65.60
19947;DHT22;10135;50.702;7.276;2023-04-07T13:42:21;13.50;65.60
19947;DHT22;10135;50.702;7.276;2023-04-07T13:44:26;13.50;65.60
19947;DHT22;10135;50.702;7.276;2023-04-07T13:46:27;13.40;65.70
19947;DHT22;10135;50.702;7.276;2023-04-07T13:48:28;13.50;65.90
19947;DHT22;10135;50.702;7.276;2023-04-07T13:50:29;13.50;65.80
19947;DHT22;10135;50.702;7.276;2023-04-07T13:52:30;13.50;65.90
19947;DHT22;10135;50.702;7.276;2023-04-07T13:54:34;13.50;66.10
19947;DHT22;10135;50.702;7.276;2023-04-07T13:56:35;13.50;66.10
19947;DHT22;10135;50.702;7.276;2023-04-07T13:58:37;13.60;66.20
19947;DHT22;10135;50.702;7.276;2023-04-07T14:00:38;13.60;66.30
19947;DHT22;10135;50.702;7.276;2023-04-07T14:02:39;13.70;66.30
19947;DHT22;10135;50.702;7.276;2023-04-07T14:04:40;13.70;66.20
19947;DHT22;10135;50.702;7.276;2023-04-07T14:06:41;13.70;66.10
19947;DHT22;10135;50.702;7.276;2023-04-07T14:08:42;13.80;66.00
19947;DHT22;10135;50.702;7.276;2023-04-07T14:10:43;13.80;66.00
19947;DHT22;10135;50.702;7.276;2023-04-07T14:12:43;13.80;66.00
19947;DHT22;10135;50.702;7.276;2023-04-07T14:14:44;13.80;66.00
19947;DHT22;10135;50.702;7.276;2023-04-07T14:16:45;13.80;66.00
19947;DHT22;10135;50.702;7.276;2023-04-07T14:18:46;13.90;66.10
19947;DHT22;10135;50.702;7.276;2023-04-07T14:20:46;13.90;66.20
19947;DHT22;10135;50.702;7.276;2023-04-07T14:22:47;14.00;66.20
19947;DHT22;10135;50.702;7.276;2023-04-07T14:24:48;14.00;66.20
19947;DHT22;10135;50.702;7.276;2023-04-07T14:26:48;14.00;66.20
19947;DHT22;10135;50.702;7.276;2023-04-07T14:28:50;14.10;66.20
19947;DHT22;10135;50.702;7.276;2023-04-07T14:30:50;14.10;66.20
19947;DHT22;10135;50.702;7.276;2023-04-07T14:32:51;14.10;66.00
19947;DHT22;10135;50.702;7.276;2023-04-07T14:34:52;14.10;66.00
19947;DHT22;10135;50.702;7.276;2023-04-07T14:36:56;14.20;65.90
19947;DHT22;10135;50.702;7.276;2023-04-07T14:39:00;14.20;66.10
19947;DHT22;10135;50.702;7.276;2023-04-07T14:41:01;14.20;65.90
19947;DHT22;10135;50.702;7.276;2023-04-07T14:43:02;14.20;66.00
19947;DHT22;10135;50.702;7.276;2023-04-07T14:45:04;14.30;66.10
19947;DHT22;10135;50.702;7.276;2023-04-07T14:47:05;14.30;66.00
19947;DHT22;10135;50.702;7.276;2023-04-07T14:49:05;14.30;65.90
19947;DHT22;10135;50.702;7.276;2023-04-07T14:51:10;14.30;65.70
19947;DHT22;10135;50.702;7.276;2023-04-07T14:53:12;14.30;65.80
19947;DHT22;10135;50.702;7.276;2023-04-07T14:55:12;14.20;65.60
19947;DHT22;10135;50.702;7.276;2023-04-07T14:57:13;14.20;65.60
19947;DHT22;10135;50.702;7.276;2023-04-07T14:59:14;14.20;65.60
19947;DHT22;10135;50.702;7.276;2023-04-07T15:01:15;14.20;65.60
19947;DHT22;10135;50.702;7.276;2023-04-07T15:03:16;14.20;65.80
19947;DHT22;10135;50.702;7.276;2023-04-07T15:05:17;14.20;65.90
19947;DHT22;10135;50.702;7.276;2023-04-07T15:07:17;14.10;65.80
19947;DHT22;10135;50.702;7.276;2023-04-07T15:09:18;14.10;65.80
19947;DHT22;10135;50.702;7.276;2023-04-07T15:11:19;14.10;65.80
19947;DHT22;10135;50.702;7.276;2023-04-07T15:13:20;14.10;65.80
19947;DHT22;10135;50.702;7.276;2023-04-07T15:15:23;14.10;65.80
19947;DHT22;10135;50.702;7.276;2023-04-07T15:17:25;14.10;65.90
19947;DHT22;10135;50.702;7.276;2023-04-07T15:19:26;14.00;65.80
19947;DHT22;10135;50.702;7.276;2023-04-07T15:21:26;14.10;65.80
19947;DHT22;10135;50.702;7.276;2023-04-07T15:23:27;14.00;65.80
19947;DHT22;10135;50.702;7.276;2023-04-07T15:25:28;14.00;65.70
19947;DHT22;10135;50.702;7.276;2023-04-07T15:27:29;14.00;65.80
19947;DHT22;10135;50.702;7.276;2023-04-07T15:29:29;14.00;65.80
19947;DHT22;10135;50.702;7.276;2023-04-07T15:31:30;14.00;65.90
19947;DHT22;10135;50.702;7.276;2023-04-07T15:33:30;13.90;65.80
19947;DHT22;10135;50.702;7.276;2023-04-07T15:35:31;13.90;65.70
19947;DHT22;10135;50.702;7.276;2023-04-07T15:37:32;13.90;65.80
19947;DHT22;10135;50.702;7.276;2023-04-07T15:39:32;13.90;65.80
19947;DHT22;10135;50.702;7.276;2023-04-07T15:41:33;13.90;65.80
19947;DHT22;10135;50.702;7.276;2023-04-07T15:43:34;13.90;65.80
19947;DHT22;10135;50.702;7.276;2023-04-07T15:45:40;13.80;65.80
19947;DHT22;10135;50.702;7.276;2023-04-07T15:47:42;13.80;66.00
19947;DHT22;10135;50.702;7.276;2023-04-07T15:49:42;13.80;66.00
19947;DHT22;10135;50.702;7.276;2023-04-07T15:51:43;13.80;66.00
19947;DHT22;10135;50.702;7.276;2023-04-07T15:53:44;13.80;66.10
19947;DHT22;10135;50.702;7.276;2023-04-07T15:55:44;13.80;66.00
19947;DHT22;10135;50.702;7.276;2023-04-07T15:57:45;13.80;66.00
19947;DHT22;10135;50.702;7.276;2023-04-07T15:59:46;13.80;66.00
19947;DHT22;10135;50.702;7.276;2023-04-07T16:01:47;13.80;66.10
19947;DHT22;10135;50.702;7.276;2023-04-07T16:03:48;13.70;66.10
19947;DHT22;10135;50.702;7.276;2023-04-07T16:05:48;13.70;66.10
19947;DHT22;10135;50.702;7.276;2023-04-07T16:07:50;13.70;66.00
19947;DHT22;10135;50.702;7.276;2023-04-07T16:09:51;13.70;66.10
19947;DHT22;10135;50.702;7.276;2023-04-07T16:11:51;13.70;66.10
19947;DHT22;10135;50.702;7.276;2023-04-07T16:13:52;13.70;66.10
19947;DHT22;10135;50.702;7.276;2023-04-07T16:15:56;13.70;66.10
19947;DHT22;10135;50.702;7.276;2023-04-07T16:17:56;13.60;66.10
19947;DHT22;10135;50.702;7.276;2023-04-07T16:19:57;13.60;66.10
19947;DHT22;10135;50.702;7.276;2023-04-07T16:21:58;13.60;66.10
19947;DHT22;10135;50.702;7.276;2023-04-07T16:23:58;13.60;66.10
19947;DHT22;10135;50.702;7.276;2023-04-07T16:25:59;13.50;66.00
19947;DHT22;10135;50.702;7.276;2023-04-07T16:27:59;13.50;66.10
19947;DHT22;10135;50.702;7.276;2023-04-07T16:30:00;13.50;66.10
19947;DHT22;10135;50.702;7.276;2023-04-07T16:32:02;13.50;66.20
19947;DHT22;10135;50.702;7.276;2023-04-07T16:34:03;13.40;66.10
19947;DHT22;10135;50.702;7.276;2023-04-07T16:36:05;13.40;66.10
19947;DHT22;10135;50.702;7.276;2023-04-07T16:38:06;13.40;66.30
19947;DHT22;10135;50.702;7.276;2023-04-07T16:40:08;13.40;66.30
19947;DHT22;10135;50.702;7.276;2023-04-07T16:42:09;13.30;66.20
19947;DHT22;10135;50.702;7.276;2023-04-07T16:44:10;13.30;66.20
19947;DHT22;10135;50.702;7.276;2023-04-07T16:46:10;13.30;66.20
19947;DHT22;10135;50.702;7.276;2023-04-07T16:48:11;13.20;66.20
19947;DHT22;10135;50.702;7.276;2023-04-07T16:50:12;13.20;66.30
19947;DHT22;10135;50.702;7.276;2023-04-07T16:52:12;13.20;66.30
19947;DHT22;10135;50.702;7.276;2023-04-07T16:54:13;13.20;66.40
19947;DHT22;10135;50.702;7.276;2023-04-07T16:56:20;13.20;66.40
19947;DHT22;10135;50.702;7.276;2023-04-07T16:58:22;13.10;66.50
19947;DHT22;10135;50.702;7.276;2023-04-07T17:00:22;13.10;66.40
19947;DHT22;10135;50.702;7.276;2023-04-07T17:02:23;13.10;66.50
19947;DHT22;10135;50.702;7.276;2023-04-07T17:04:26;13.10;66.50
19947;DHT22;10135;50.702;7.276;2023-04-07T17:06:27;13.10;66.60
19947;DHT22;10135;50.702;7.276;2023-04-07T17:08:27;13.10;66.60
19947;DHT22;10135;50.702;7.276;2023-04-07T17:10:28;13.10;66.60
19947;DHT22;10135;50.702;7.276;2023-04-07T17:12:29;13.10;66.70
19947;DHT22;10135;50.702;7.276;2023-04-07T17:14:29;13.00;66.60
19947;DHT22;10135;50.702;7.276;2023-04-07T17:16:30;13.00;66.60
19947;DHT22;10135;50.702;7.276;2023-04-07T17:18:32;13.00;66.80
19947;DHT22;10135;50.702;7.276;2023-04-07T17:20:33;13.00;66.80
19947;DHT22;10135;50.702;7.276;2023-04-07T17:22:33;13.00;66.80
19947;DHT22;10135;50.702;7.276;2023-04-07T17:24:34;13.00;66.80
19947;DHT22;10135;50.702;7.276;2023-04-07T17:26:34;13.00;66.80
19947;DHT22;10135;50.702;7.276;2023-04-07T17:28:35;13.00;66.80
19947;DHT22;10135;50.702;7.276;2023-04-07T17:30:36;13.00;66.80
19947;DHT22;10135;50.702;7.276;2023-04-07T17:32:36;13.00;66.90
19947;DHT22;10135;50.702;7.276;2023-04-07T17:34:37;12.90;66.80
19947;DHT22;10135;50.702;7.276;2023-04-07T17:36:38;13.00;66.80
19947;DHT22;10135;50.702;7.276;2023-04-07T17:38:39;13.00;66.90
19947;DHT22;10135;50.702;7.276;2023-04-07T17:40:39;13.00;67.00
19947;DHT22;10135;50.702;7.276;2023-04-07T17:42:40;12.90;66.80
19947;DHT22;10135;50.702;7.276;2023-04-07T17:44:42;12.90;66.90
19947;DHT22;10135;50.702;7.276;2023-04-07T17:46:43;12.90;66.90
19947;DHT22;10135;50.702;7.276;2023-04-07T17:48:43;12.90;66.90
19947;DHT22;10135;50.702;7.276;2023-04-07T17:50:44;12.90;67.00
19947;DHT22;10135;50.702;7.276;2023-04-07T17:52:46;12.90;67.00
19947;DHT22;10135;50.702;7.276;2023-04-07T17:54:47;12.90;67.00
19947;DHT22;10135;50.702;7.276;2023-04-07T17:56:48;12.90;67.00
19947;DHT22;10135;50.702;7.276;2023-04-07T17:58:48;12.90;67.10
19947;DHT22;10135;50.702;7.276;2023-04-07T18:00:49;12.90;67.10
19947;DHT22;10135;50.702;7.276;2023-04-07T18:02:50;12.80;67.00
19947;DHT22;10135;50.702;7.276;2023-04-07T18:04:50;12.80;67.10
19947;DHT22;10135;50.702;7.276;2023-04-07T18:06:51;12.80;67.20
19947;DHT22;10135;50.702;7.276;2023-04-07T18:08:52;12.80;67.20
19947;DHT22;10135;50.702;7.276;2023-04-07T18:10:52;12.80;67.30
19947;DHT22;10135;50.702;7.276;2023-04-07T18:12:53;12.80;67.30